createdAt,value
2018-04-30T00:01:53.722Z,9.37
2018-04-30T00:06:44.735Z,9.10
2018-04-30T00:11:35.765Z,15.00
2018-04-30T00:16:26.780Z,12.63
2018-04-30T00:21:17.800Z,11.87
2018-04-30T00:26:08.913Z,11.10
2018-04-30T00:31:00.675Z,11.40
2018-04-30T00:35:51.792Z,10.93
2018-04-30T00:40:42.827Z,12.43
2018-04-30T00:45:33.866Z,12.17
2018-04-30T00:50:24.878Z,11.33
2018-04-30T00:55:15.927Z,12.43
2018-04-30T01:00:06.936Z,11.90
2018-04-30T01:04:57.948Z,12.27
2018-04-30T01:09:48.968Z,12.23
2018-04-30T01:14:39.991Z,12.80
2018-04-30T01:19:31.054Z,14.37
2018-04-30T01:24:22.092Z,17.10
2018-04-30T01:29:13.885Z,14.00
2018-04-30T01:34:04.919Z,15.67
2018-04-30T01:38:55.991Z,16.60
2018-04-30T01:43:47.790Z,12.70
2018-04-30T01:48:38.820Z,13.90
2018-04-30T01:53:29.835Z,15.10
2018-04-30T01:58:20.915Z,16.80
2018-04-30T02:03:11.931Z,17.77
2018-04-30T02:08:03.683Z,18.60
2018-04-30T02:12:54.792Z,17.23
2018-04-30T02:17:46.556Z,18.50
2018-04-30T02:22:37.579Z,21.57
2018-04-30T02:27:28.585Z,25.60
2018-04-30T02:32:19.656Z,18.47
2018-04-30T02:37:10.676Z,19.67
2018-04-30T02:42:01.695Z,20.93
2018-04-30T02:46:52.724Z,17.73
2018-04-30T02:51:43.767Z,17.93
2018-04-30T02:56:34.863Z,18.83
2018-04-30T03:01:25.884Z,18.33
2018-04-30T03:06:16.908Z,20.63
2018-04-30T03:11:07.988Z,17.20
2018-04-30T03:15:59.020Z,20.20
2018-04-30T03:20:50.139Z,22.77
2018-04-30T03:25:41.186Z,17.60
2018-04-30T03:30:32.200Z,14.50
2018-04-30T03:35:23.212Z,16.33
2018-04-30T03:40:14.267Z,15.43
2018-04-30T03:45:05.291Z,16.60
2018-04-30T03:49:56.312Z,18.50
2018-04-30T03:54:47.388Z,18.57
2018-04-30T03:59:39.169Z,13.63
2018-04-30T04:04:48.901Z,16.90
2018-04-30T04:09:40.050Z,12.80
2018-04-30T04:14:31.090Z,15.03
2018-04-30T04:19:22.118Z,16.40
2018-04-30T04:24:13.148Z,13.70
2018-04-30T04:29:04.171Z,16.53
2018-04-30T04:33:55.171Z,13.90
2018-04-30T04:38:46.184Z,17.50
2018-04-30T04:43:37.228Z,15.80
2018-04-30T04:48:28.241Z,15.40
2018-04-30T04:53:19.254Z,13.17
2018-04-30T04:58:10.285Z,13.13
2018-04-30T05:03:01.316Z,19.73
2018-04-30T05:07:52.332Z,15.77
2018-04-30T05:12:43.433Z,11.77
2018-04-30T05:17:34.591Z,14.97
2018-04-30T05:22:25.604Z,13.97
2018-04-30T05:27:16.620Z,16.03
2018-04-30T05:32:07.643Z,14.13
2018-04-30T05:36:58.640Z,15.50
2018-04-30T05:41:50.440Z,14.47
2018-04-30T05:46:41.460Z,20.87
2018-04-30T05:51:32.472Z,20.80
2018-04-30T05:56:23.503Z,14.83
2018-04-30T06:01:14.600Z,18.80
2018-04-30T06:06:05.664Z,19.97
2018-04-30T06:10:56.688Z,21.53
2018-04-30T06:15:47.732Z,19.93
2018-04-30T06:20:39.598Z,19.77
2018-04-30T06:25:30.699Z,18.87
2018-04-30T06:30:22.469Z,14.60
2018-04-30T06:35:13.490Z,16.43
2018-04-30T06:40:04.518Z,18.70
2018-04-30T06:44:56.408Z,16.17
2018-04-30T06:49:47.463Z,18.07
2018-04-30T06:54:39.276Z,20.27
2018-04-30T06:59:30.309Z,20.00
2018-04-30T07:04:22.817Z,25.27
2018-04-30T07:09:13.958Z,17.63
2018-04-30T07:14:05.704Z,22.97
2018-04-30T07:18:56.738Z,15.33
2018-04-30T07:23:47.836Z,19.50
2018-04-30T07:28:38.887Z,16.30
2018-04-30T07:33:30.020Z,21.07
2018-04-30T07:38:22.579Z,19.10
2018-04-30T07:43:13.633Z,23.87
2018-04-30T07:48:05.575Z,19.33
2018-04-30T07:52:57.465Z,17.17
2018-04-30T07:57:48.568Z,16.63
2018-04-30T08:02:39.687Z,20.77
2018-04-30T08:07:31.561Z,21.43
2018-04-30T08:12:22.604Z,17.93
2018-04-30T08:17:13.696Z,22.57
2018-04-30T08:22:05.447Z,21.50
2018-04-30T08:26:57.306Z,17.97
2018-04-30T08:31:48.271Z,22.80
2018-04-30T08:36:39.348Z,19.53
2018-04-30T08:41:30.326Z,19.33
2018-04-30T08:46:22.907Z,18.73
2018-04-30T08:51:14.683Z,20.63
2018-04-30T08:56:05.702Z,26.50
2018-04-30T09:00:56.729Z,24.50
2018-04-30T09:05:47.765Z,25.67
2018-04-30T09:10:38.817Z,19.63
2018-04-30T09:15:29.843Z,21.87
2018-04-30T09:20:20.905Z,19.67
2018-04-30T09:25:11.940Z,18.43
2018-04-30T09:30:02.964Z,25.73
2018-04-30T09:34:53.985Z,19.87
2018-04-30T09:39:45.065Z,20.07
2018-04-30T09:44:36.113Z,20.97
2018-04-30T09:49:27.175Z,19.60
2018-04-30T09:54:18.347Z,14.40
2018-04-30T09:59:10.151Z,20.57
2018-04-30T10:04:01.175Z,22.10
2018-04-30T10:08:52.194Z,25.93
2018-04-30T10:13:43.323Z,15.13
2018-04-30T10:18:34.339Z,19.50
2018-04-30T10:23:25.471Z,16.40
2018-04-30T10:28:17.194Z,24.63
2018-04-30T10:33:08.229Z,20.90
2018-04-30T10:37:59.342Z,18.70
2018-04-30T10:42:50.301Z,18.73
2018-04-30T10:47:41.336Z,14.17
2018-04-30T10:52:33.136Z,11.13
2018-04-30T10:57:24.193Z,8.07
2018-04-30T11:02:15.247Z,7.47
2018-04-30T11:07:06.260Z,11.30
2018-04-30T11:11:58.029Z,9.73
2018-04-30T11:16:49.095Z,7.40
2018-04-30T11:21:40.188Z,7.83
2018-04-30T11:26:31.216Z,5.97
2018-04-30T11:31:22.270Z,8.57
2018-04-30T11:36:13.302Z,6.47
2018-04-30T11:41:05.076Z,4.50
2018-04-30T11:45:56.118Z,7.93
2018-04-30T11:50:47.169Z,8.20
2018-04-30T11:55:38.219Z,6.93
2018-04-30T12:00:30.076Z,4.67
2018-04-30T12:05:21.100Z,6.67
2018-04-30T12:10:12.259Z,5.80
2018-04-30T12:15:03.297Z,5.50
2018-04-30T12:19:54.373Z,7.20
2018-04-30T12:24:45.388Z,8.33
2018-04-30T12:29:36.463Z,5.30
2018-04-30T12:34:27.535Z,4.63
2018-04-30T12:39:18.580Z,4.77
2018-04-30T12:44:09.672Z,3.90
2018-04-30T12:49:08.441Z,4.00
2018-04-30T12:53:59.516Z,5.03
2018-04-30T12:58:50.557Z,7.00
2018-04-30T13:03:41.591Z,4.40
2018-04-30T13:08:32.653Z,2.57
2018-04-30T13:13:23.852Z,1.27
2018-04-30T13:18:14.998Z,4.40
2018-04-30T13:23:06.055Z,2.43
2018-04-30T13:27:57.107Z,2.40
2018-04-30T13:32:48.967Z,1.53
2018-04-30T13:37:40.059Z,3.27
2018-04-30T13:42:31.074Z,2.50
2018-04-30T13:47:22.140Z,4.10
2018-04-30T13:52:13.181Z,4.17
2018-04-30T13:57:04.301Z,4.80
2018-04-30T14:01:55.345Z,3.20
2018-04-30T14:06:46.385Z,2.90
2018-04-30T14:11:37.426Z,1.93
2018-04-30T14:16:28.447Z,2.10
2018-04-30T14:21:19.507Z,8.37
2018-04-30T14:26:10.572Z,2.93
2018-04-30T14:31:01.596Z,3.20
2018-04-30T14:35:52.615Z,1.90
2018-04-30T14:40:43.691Z,13.47
2018-04-30T14:45:35.494Z,2.43
2018-04-30T14:50:26.556Z,1.20
2018-04-30T14:55:18.363Z,7.03
2018-04-30T15:00:09.443Z,7.40
2018-04-30T15:05:00.476Z,1.57
2018-04-30T15:09:51.559Z,5.37
2018-04-30T15:14:43.340Z,2.17
2018-04-30T15:19:34.468Z,1.53
2018-04-30T15:24:25.470Z,2.07
2018-04-30T15:29:16.508Z,2.53
2018-04-30T15:34:07.559Z,3.70
2018-04-30T15:38:58.624Z,6.03
2018-04-30T15:43:50.426Z,2.57
2018-04-30T15:48:41.456Z,3.80
2018-04-30T15:53:32.612Z,2.60
2018-04-30T15:58:24.419Z,1.67
2018-04-30T16:03:16.144Z,2.27
2018-04-30T16:08:07.163Z,1.43
2018-04-30T16:12:58.184Z,2.30
2018-04-30T16:17:49.227Z,1.80
2018-04-30T16:22:40.372Z,3.90
2018-04-30T16:27:31.372Z,2.50
2018-04-30T16:32:22.376Z,1.00
2018-04-30T16:37:13.427Z,3.53
2018-04-30T16:42:04.446Z,1.53
2018-04-30T16:46:55.571Z,2.50
2018-04-30T16:51:46.588Z,3.00
2018-04-30T16:56:37.657Z,1.50
2018-04-30T17:01:29.414Z,3.43
2018-04-30T17:06:20.569Z,2.13
2018-04-30T17:11:11.599Z,2.23
2018-04-30T17:16:02.623Z,1.97
2018-04-30T17:20:53.656Z,1.40
2018-04-30T17:25:44.699Z,2.60
2018-04-30T17:30:36.521Z,1.07
2018-04-30T17:35:27.556Z,1.73
2018-04-30T17:40:18.587Z,1.40
2018-04-30T17:45:10.372Z,1.73
2018-04-30T17:50:01.410Z,1.10
2018-04-30T17:54:52.429Z,2.40
2018-04-30T17:59:43.460Z,2.63
2018-04-30T18:04:34.544Z,1.63
2018-04-30T18:09:25.582Z,4.97
2018-04-30T18:14:16.718Z,3.10
2018-04-30T18:19:07.747Z,1.47
2018-04-30T18:23:58.819Z,2.77
2018-04-30T18:28:50.592Z,6.30
2018-04-30T18:33:41.624Z,4.33
2018-04-30T18:38:32.660Z,5.67
2018-04-30T18:43:23.819Z,3.63
2018-04-30T18:48:14.908Z,4.17
2018-04-30T18:53:05.990Z,4.77
2018-04-30T18:57:57.032Z,4.63
2018-04-30T19:02:48.109Z,5.57
2018-04-30T19:07:39.133Z,6.73
2018-04-30T19:12:30.281Z,7.30
2018-04-30T19:17:22.070Z,5.00
2018-04-30T19:22:13.106Z,8.23
2018-04-30T19:27:04.287Z,6.60
2018-04-30T19:31:55.390Z,4.63
2018-04-30T19:36:47.261Z,4.20
2018-04-30T19:41:38.289Z,7.20
2018-04-30T19:46:29.368Z,9.97
2018-04-30T19:51:21.181Z,7.10
2018-04-30T19:56:12.267Z,6.07
2018-04-30T20:01:03.284Z,7.50
2018-04-30T20:05:54.472Z,9.47
2018-04-30T20:10:46.253Z,7.17
2018-04-30T20:15:37.288Z,5.03
2018-04-30T20:20:28.420Z,4.27
2018-04-30T20:25:19.400Z,4.00
2018-04-30T20:30:11.228Z,4.33
2018-04-30T20:35:02.245Z,4.97
2018-04-30T20:39:53.286Z,6.27
2018-04-30T20:44:45.151Z,6.47
2018-04-30T20:49:36.924Z,4.63
2018-04-30T20:54:28.027Z,5.43
2018-04-30T20:59:19.125Z,5.50
2018-04-30T21:04:10.953Z,5.67
2018-04-30T21:09:12.396Z,7.20
2018-04-30T21:14:03.433Z,7.40
2018-04-30T21:18:54.458Z,5.53
2018-04-30T21:23:45.460Z,6.63
2018-04-30T21:28:36.479Z,5.20
2018-04-30T21:33:27.499Z,7.43
2018-04-30T21:38:18.515Z,5.30
2018-04-30T21:43:09.547Z,3.53
2018-04-30T21:48:00.660Z,6.03
2018-04-30T21:52:51.738Z,6.77
2018-04-30T21:57:42.786Z,5.83
2018-04-30T22:02:33.822Z,5.67
2018-04-30T22:07:24.840Z,5.63
2018-04-30T22:12:15.868Z,4.10
2018-04-30T22:17:06.892Z,5.33
2018-04-30T22:21:57.915Z,7.53
2018-04-30T22:26:48.932Z,5.30
2018-04-30T22:31:39.976Z,7.03
2018-04-30T22:36:31.040Z,9.00
2018-04-30T22:41:22.779Z,7.73
2018-04-30T22:46:14.539Z,5.77
2018-04-30T22:51:05.576Z,9.90
2018-04-30T22:55:56.626Z,9.60
2018-04-30T23:00:47.637Z,7.73
2018-04-30T23:05:38.651Z,7.43
2018-04-30T23:10:29.676Z,6.67
2018-04-30T23:15:20.797Z,6.50
2018-04-30T23:20:11.828Z,7.20
2018-04-30T23:25:02.875Z,6.97
2018-04-30T23:29:53.957Z,7.50
2018-04-30T23:34:45.050Z,6.47
2018-04-30T23:39:36.818Z,7.70
2018-04-30T23:44:27.844Z,9.80
2018-04-30T23:49:18.879Z,10.00
2018-04-30T23:54:09.901Z,6.20
2018-04-30T23:59:00.946Z,9.50
